Kabwe, Zambia
Current Conditions -  °F | °C
As of 10:00 AM on Wednesday 26 Nov 2014 (Local Time) from FVHA Reporting Station
Clear Clear  
Wind Chill: 81°   Ceiling: Unl
Heat Index: 81°   Visibility: 6mi
Dew Point: 45°   Wind: 12mph
Humidity: 28%   Direction: 80°E
Pressure: 30.21"   Gusts: NA
Location:  14.44°S, 28.45°E
Report Text: FVHA 260800Z 08010KT 020V110 CAVOK 27/07 Q1023 NOSIG
Loading
Personal Weather Stations






























Interactive Weather Map New forecast layout! Learn more

10-Day Weather Forecast

Advertisements
Track Severe Weather on mobile